createdAt,value
2017-11-19T00:00:02.672Z,100563.89
2017-11-19T00:01:05.141Z,100558.95
2017-11-19T00:02:07.608Z,100564.62
2017-11-19T00:03:10.084Z,100559.86
2017-11-19T00:04:12.567Z,100563.17
2017-11-19T00:05:15.072Z,100556.63
2017-11-19T00:06:17.574Z,100556.63
2017-11-19T00:07:20.095Z,100555.58
2017-11-19T00:08:22.560Z,100554.53
2017-11-19T00:09:25.026Z,100551.95
2017-11-19T00:10:27.511Z,100548.95
2017-11-19T00:11:29.983Z,100548.28
2017-11-19T00:12:32.452Z,100545.69
2017-11-19T00:13:34.954Z,100549.02
2017-11-19T00:14:37.422Z,100552.50
2017-11-19T00:15:39.912Z,100552.67
2017-11-19T00:16:42.375Z,100552.83
2017-11-19T00:17:44.836Z,100549.27
2017-11-19T00:18:47.299Z,100549.84
2017-11-19T00:19:49.771Z,100548.46
2017-11-19T00:20:52.270Z,100546.28
2017-11-19T00:21:54.759Z,100544.27
2017-11-19T00:22:57.233Z,100548.55
2017-11-19T00:23:59.703Z,100547.51
2017-11-19T00:25:02.170Z,100543.38
2017-11-19T00:26:04.685Z,100547.44
2017-11-19T00:27:07.162Z,100544.84
2017-11-19T00:28:09.624Z,100545.41
2017-11-19T00:29:12.103Z,100549.70
2017-11-19T00:30:14.576Z,100544.37
2017-11-19T00:31:17.080Z,100545.47
2017-11-19T00:32:19.559Z,100548.39
2017-11-19T00:33:22.050Z,100546.38
2017-11-19T00:34:24.539Z,100547.91
2017-11-19T00:35:27.022Z,100549.45
2017-11-19T00:36:29.513Z,100546.45
2017-11-19T00:37:31.992Z,100537.80
2017-11-19T00:38:34.474Z,100543.06
2017-11-19T00:39:36.971Z,100549.14
2017-11-19T00:40:44.429Z,100540.64
2017-11-19T00:41:46.938Z,100542.18
2017-11-19T00:42:49.414Z,100533.69
2017-11-19T00:43:51.893Z,100535.63
2017-11-19T00:44:54.370Z,100533.05
2017-11-19T00:45:56.859Z,100531.03
2017-11-19T00:46:59.350Z,100538.87
2017-11-19T00:48:01.818Z,100539.45
2017-11-19T00:49:04.285Z,100532.33
2017-11-19T00:50:06.756Z,100531.59
2017-11-19T00:51:09.238Z,100537.17
2017-11-19T00:52:11.721Z,100538.63
2017-11-19T00:53:14.200Z,100531.41
2017-11-19T00:54:16.671Z,100537.56
2017-11-19T00:55:19.155Z,100533.84
2017-11-19T00:56:21.629Z,100533.91
2017-11-19T00:57:24.117Z,100535.69
2017-11-19T00:58:26.578Z,100532.78
2017-11-19T00:59:29.059Z,100525.89
2017-11-19T01:00:31.547Z,100535.94
2017-11-19T01:01:34.038Z,100535.53
2017-11-19T01:02:36.543Z,100532.61
2017-11-19T01:03:39.012Z,100532.61
2017-11-19T01:04:41.482Z,100534.63
2017-11-19T01:05:43.949Z,100528.08
2017-11-19T01:06:46.422Z,100533.18
2017-11-19T01:07:48.920Z,100533.58
2017-11-19T01:08:51.405Z,100531.41
2017-11-19T01:09:53.887Z,100532.37
2017-11-19T01:10:56.353Z,100533.91
2017-11-19T01:11:58.816Z,100540.79
2017-11-19T01:13:01.441Z,100536.83
2017-11-19T01:14:03.908Z,100537.39
2017-11-19T01:15:06.372Z,100546.39
2017-11-19T01:16:08.832Z,100554.64
2017-11-19T01:17:11.318Z,100557.16
2017-11-19T01:18:13.823Z,100553.03
2017-11-19T01:19:16.306Z,100553.59
2017-11-19T01:20:18.768Z,100555.94
2017-11-19T01:21:21.233Z,100553.92
2017-11-19T01:22:23.693Z,100550.77
2017-11-19T01:23:26.186Z,100559.59
2017-11-19T01:24:28.666Z,100551.91
2017-11-19T01:25:31.142Z,100559.75
2017-11-19T01:26:33.619Z,100554.02
2017-11-19T01:27:36.081Z,100554.02
2017-11-19T01:28:38.565Z,100550.45
2017-11-19T01:29:41.042Z,100555.55
2017-11-19T01:30:43.508Z,100552.56
2017-11-19T01:31:45.968Z,100549.81
2017-11-19T01:32:48.462Z,100548.73
2017-11-19T01:33:50.963Z,100549.13
2017-11-19T01:34:53.474Z,100543.80
2017-11-19T01:35:55.967Z,100543.80
2017-11-19T01:36:58.453Z,100543.96
2017-11-19T01:38:00.917Z,100545.91
2017-11-19T01:39:03.411Z,100552.14
2017-11-19T01:40:05.877Z,100559.42
2017-11-19T01:41:08.365Z,100560.95
2017-11-19T01:42:10.858Z,100555.62
2017-11-19T01:43:13.328Z,100554.81
2017-11-19T01:44:15.843Z,100553.03
2017-11-19T01:45:18.312Z,100564.61
2017-11-19T01:46:20.792Z,100571.08
2017-11-19T01:47:23.260Z,100574.64
2017-11-19T01:48:25.719Z,100569.30
2017-11-19T01:49:28.202Z,100572.62
2017-11-19T01:50:30.678Z,100572.78
2017-11-19T01:51:33.149Z,100568.81
2017-11-19T01:52:35.640Z,100573.08
2017-11-19T01:53:38.117Z,100572.03
2017-11-19T01:54:40.613Z,100573.41
2017-11-19T01:55:43.079Z,100574.38
2017-11-19T01:56:45.580Z,100563.70
2017-11-19T01:57:48.061Z,100567.02
2017-11-19T01:58:50.535Z,100569.93
2017-11-19T01:59:53.011Z,100574.05
2017-11-19T02:00:55.490Z,100579.28
2017-11-19T02:01:57.980Z,100574.76
2017-11-19T02:03:00.466Z,100568.61
2017-11-19T02:04:02.951Z,100567.64
2017-11-19T02:05:05.407Z,100569.17
2017-11-19T02:06:07.877Z,100570.72
2017-11-19T02:07:10.339Z,100573.06
2017-11-19T02:08:12.817Z,100573.63
2017-11-19T02:09:15.289Z,100569.83
2017-11-19T02:10:17.750Z,100569.83
2017-11-19T02:11:20.237Z,100571.77
2017-11-19T02:12:22.718Z,100575.25
2017-11-19T02:13:25.189Z,100573.06
2017-11-19T02:14:27.659Z,100571.45
2017-11-19T02:15:30.142Z,100568.30
2017-11-19T02:16:32.603Z,100571.21
2017-11-19T02:17:35.063Z,100575.34
2017-11-19T02:18:37.533Z,100574.29
2017-11-19T02:19:40.013Z,100571.30
2017-11-19T02:20:42.492Z,100567.17
2017-11-19T02:21:44.960Z,100569.52
2017-11-19T02:22:47.420Z,100572.43
2017-11-19T02:23:49.895Z,100567.09
2017-11-19T02:24:52.363Z,100565.45
2017-11-19T02:25:54.842Z,100567.23
2017-11-19T02:26:57.309Z,100572.89
2017-11-19T02:27:59.785Z,100574.27
2017-11-19T02:29:02.249Z,100567.95
2017-11-19T02:30:04.730Z,100570.70
2017-11-19T02:31:07.218Z,100565.77
2017-11-19T02:32:09.680Z,100561.64
2017-11-19T02:33:12.145Z,100567.55
2017-11-19T02:34:14.613Z,100564.80
2017-11-19T02:35:17.077Z,100570.87
2017-11-19T02:36:19.586Z,100568.92
2017-11-19T02:37:22.062Z,100572.81
2017-11-19T02:38:24.520Z,100571.44
2017-11-19T02:39:27.006Z,100574.34
2017-11-19T02:40:29.502Z,100573.94
2017-11-19T02:41:32.015Z,100573.70
2017-11-19T02:42:34.484Z,100568.77
2017-11-19T02:43:36.972Z,100573.22
2017-11-19T02:44:39.448Z,100575.41
2017-11-19T02:45:41.914Z,100573.22
2017-11-19T02:46:44.421Z,100576.94
2017-11-19T02:47:46.905Z,100581.23
2017-11-19T02:48:49.370Z,100580.42
2017-11-19T02:49:51.830Z,100583.57
2017-11-19T02:50:54.331Z,100586.73
2017-11-19T02:51:56.834Z,100590.69
2017-11-19T02:52:59.413Z,100591.09
2017-11-19T02:54:01.886Z,100589.48
2017-11-19T02:55:04.351Z,100587.13
2017-11-19T02:56:06.812Z,100583.33
2017-11-19T02:57:09.272Z,100586.48
2017-11-19T02:58:11.775Z,100585.52
2017-11-19T02:59:14.243Z,100583.00
2017-11-19T03:00:16.708Z,100584.95
2017-11-19T03:01:19.169Z,100582.60
2017-11-19T03:02:21.632Z,100584.38
2017-11-19T03:03:24.191Z,100583.16
2017-11-19T03:04:26.666Z,100584.95
2017-11-19T03:05:29.127Z,100581.95
2017-11-19T03:06:31.614Z,100584.30
2017-11-19T03:07:34.093Z,100580.02
2017-11-19T03:08:36.576Z,100581.80
2017-11-19T03:09:39.044Z,100581.23
2017-11-19T03:10:41.517Z,100580.42
2017-11-19T03:11:43.986Z,100581.23
2017-11-19T03:12:46.448Z,100582.60
2017-11-19T03:13:48.929Z,100584.54
2017-11-19T03:14:51.391Z,100586.32
2017-11-19T03:15:53.890Z,100588.10
2017-11-19T03:16:56.375Z,100585.35
2017-11-19T03:17:58.877Z,100585.91
2017-11-19T03:19:01.340Z,100586.48
2017-11-19T03:20:03.840Z,100587.86
2017-11-19T03:21:06.331Z,100581.71
2017-11-19T03:22:08.807Z,100582.12
2017-11-19T03:23:11.287Z,100588.34
2017-11-19T03:24:13.781Z,100583.81
2017-11-19T03:25:16.258Z,100583.41
2017-11-19T03:26:18.726Z,100588.91
2017-11-19T03:27:21.192Z,100588.51
2017-11-19T03:28:23.688Z,100590.45
2017-11-19T03:29:26.168Z,100594.17
2017-11-19T03:30:28.633Z,100593.36
2017-11-19T03:31:31.115Z,100596.67
2017-11-19T03:32:33.594Z,100598.21
2017-11-19T03:33:36.099Z,100593.25
2017-11-19T03:34:38.564Z,100596.16
2017-11-19T03:35:41.024Z,100593.81
2017-11-19T03:36:43.487Z,100585.89
2017-11-19T03:37:45.982Z,100592.77
2017-11-19T03:38:48.477Z,100584.68
2017-11-19T03:39:50.960Z,100580.15
2017-11-19T03:40:53.428Z,100577.32
2017-11-19T03:41:55.916Z,100581.04
2017-11-19T03:42:58.402Z,100576.52
2017-11-19T03:44:00.885Z,100580.23
2017-11-19T03:45:03.365Z,100583.14
2017-11-19T03:46:05.843Z,100582.34
2017-11-19T03:47:08.325Z,100576.19
2017-11-19T03:48:10.807Z,100579.09
2017-11-19T03:49:13.305Z,100576.92
2017-11-19T03:50:15.797Z,100578.30
2017-11-19T03:51:18.269Z,100583.38
2017-11-19T03:52:20.732Z,100581.77
2017-11-19T03:53:23.250Z,100585.48
2017-11-19T03:54:25.726Z,100586.45
2017-11-19T03:55:28.207Z,100587.42
2017-11-19T03:56:30.697Z,100582.09
2017-11-19T03:57:33.160Z,100596.81
2017-11-19T03:58:35.640Z,100592.69
2017-11-19T04:00:39.923Z,100599.31
2017-11-19T04:02:44.149Z,100593.57
2017-11-19T04:03:46.643Z,100595.48
2017-11-19T04:04:49.150Z,100588.61
2017-11-19T04:05:51.642Z,100588.37
2017-11-19T04:06:54.118Z,100586.02
2017-11-19T04:07:56.580Z,100592.09
2017-11-19T04:08:59.062Z,100606.39
2017-11-19T04:10:01.546Z,100598.39
2017-11-19T04:11:04.012Z,100601.95
2017-11-19T04:12:06.494Z,100595.19
2017-11-19T04:13:08.976Z,100598.42
2017-11-19T04:14:11.448Z,100593.01
2017-11-19T04:15:13.945Z,100600.69
2017-11-19T04:16:16.421Z,100605.86
2017-11-19T04:17:18.902Z,100604.89
2017-11-19T04:18:21.361Z,100604.09
2017-11-19T04:19:23.825Z,100602.95
2017-11-19T04:20:26.304Z,100605.70
2017-11-19T04:21:28.785Z,100604.48
2017-11-19T04:22:31.252Z,100609.98
2017-11-19T04:23:33.734Z,100605.46
2017-11-19T04:24:36.198Z,100607.00
2017-11-19T04:25:38.680Z,100608.12
2017-11-19T04:26:41.162Z,100609.26
2017-11-19T04:27:43.655Z,100613.70
2017-11-19T04:28:46.146Z,100618.16
2017-11-19T04:29:48.644Z,100624.34
2017-11-19T04:30:51.133Z,100635.26
2017-11-19T04:31:53.610Z,100623.61
2017-11-19T04:32:56.072Z,100632.02
2017-11-19T04:33:58.531Z,100622.72
2017-11-19T04:35:01.035Z,100629.19
2017-11-19T04:36:03.527Z,100633.47
2017-11-19T04:37:05.992Z,100633.63
2017-11-19T04:38:08.470Z,100626.68
2017-11-19T04:39:10.947Z,100625.88
2017-11-19T04:40:13.411Z,100625.06
2017-11-19T04:41:15.908Z,100617.95
2017-11-19T04:42:18.373Z,100624.01
2017-11-19T04:43:20.841Z,100628.30
2017-11-19T04:44:23.301Z,100625.06
2017-11-19T04:45:25.784Z,100623.12
2017-11-19T04:46:28.281Z,100623.81
2017-11-19T04:47:30.763Z,100630.55
2017-11-19T04:48:33.242Z,100631.92
2017-11-19T04:49:35.721Z,100638.92
2017-11-19T04:50:38.194Z,100634.80
2017-11-19T04:51:40.681Z,100638.13
2017-11-19T04:52:43.140Z,100632.78
2017-11-19T04:53:45.740Z,100634.16
2017-11-19T04:54:48.221Z,100633.91
2017-11-19T04:55:50.683Z,100632.70
2017-11-19T04:56:53.184Z,100629.39
2017-11-19T04:57:55.656Z,100629.39
2017-11-19T04:58:58.126Z,100637.23
2017-11-19T05:00:00.603Z,100639.00
2017-11-19T05:01:03.083Z,100642.97
2017-11-19T05:02:05.560Z,100641.03
2017-11-19T05:03:08.037Z,100644.58
2017-11-19T05:04:10.511Z,100641.84
2017-11-19T05:05:12.971Z,100638.69
2017-11-19T05:06:15.451Z,100635.12
2017-11-19T05:07:17.937Z,100637.63
2017-11-19T05:08:20.425Z,100638.03
2017-11-19T05:09:22.913Z,100642.88
2017-11-19T05:10:25.381Z,100644.42
2017-11-19T05:11:27.857Z,100637.87
2017-11-19T05:12:30.353Z,100634.31
2017-11-19T05:13:32.816Z,100638.19
2017-11-19T05:14:35.295Z,100636.98
2017-11-19T05:15:37.760Z,100641.26
2017-11-19T05:16:40.243Z,100640.20
2017-11-19T05:17:42.741Z,100638.42
2017-11-19T05:18:45.208Z,100631.15
2017-11-19T05:19:47.691Z,100639.71
2017-11-19T05:20:50.149Z,100640.28
2017-11-19T05:21:52.629Z,100636.87
2017-11-19T05:22:55.108Z,100636.04
2017-11-19T05:23:57.596Z,100644.28
2017-11-19T05:25:00.079Z,100630.30
2017-11-19T05:26:02.558Z,100636.77
2017-11-19T05:27:05.035Z,100637.33
2017-11-19T05:28:07.538Z,100637.48
2017-11-19T05:29:10.042Z,100641.77
2017-11-19T05:30:12.505Z,100640.16
2017-11-19T05:31:14.982Z,100641.93
2017-11-19T05:32:17.462Z,100641.53
2017-11-19T05:33:19.944Z,100640.31
2017-11-19T05:34:22.416Z,100644.75
2017-11-19T05:35:24.894Z,100651.46
2017-11-19T05:36:27.352Z,100652.19
2017-11-19T05:37:29.816Z,100653.16
2017-11-19T05:38:32.330Z,100657.27
2017-11-19T05:39:34.807Z,100652.59
2017-11-19T05:40:37.268Z,100650.25
2017-11-19T05:41:39.743Z,100653.96
2017-11-19T05:42:42.218Z,100650.81
2017-11-19T05:43:44.719Z,100651.38
2017-11-19T05:44:47.193Z,100647.66
2017-11-19T05:45:49.651Z,100654.53
2017-11-19T05:46:52.126Z,100652.75
2017-11-19T05:47:54.603Z,100647.98
2017-11-19T05:48:57.100Z,100651.38
2017-11-19T05:50:00.334Z,100653.72
2017-11-19T05:51:02.810Z,100655.50
2017-11-19T05:52:05.288Z,100660.83
2017-11-19T05:53:07.771Z,100654.69
2017-11-19T05:54:10.278Z,100657.84
2017-11-19T05:55:12.739Z,100658.41
2017-11-19T05:56:15.220Z,100658.41
2017-11-19T05:57:17.676Z,100666.23
2017-11-19T05:58:20.136Z,100662.28
2017-11-19T05:59:22.615Z,100661.47
2017-11-19T06:00:25.094Z,100662.28
2017-11-19T06:01:27.561Z,100662.84
2017-11-19T06:02:30.020Z,100662.84
2017-11-19T06:03:32.484Z,100661.63
2017-11-19T06:04:34.969Z,100662.16
2017-11-19T06:05:37.432Z,100664.91
2017-11-19T06:06:39.891Z,100658.04
2017-11-19T06:07:42.376Z,100669.59
2017-11-19T06:08:44.858Z,100668.22
2017-11-19T06:09:47.345Z,100669.19
2017-11-19T06:10:49.812Z,100669.34
2017-11-19T06:11:52.272Z,100677.18
2017-11-19T06:12:54.748Z,100674.19
2017-11-19T06:13:57.235Z,100676.09
2017-11-19T06:14:59.731Z,100673.10
2017-11-19T06:16:02.197Z,100667.36
2017-11-19T06:17:04.674Z,100674.08
2017-11-19T06:18:07.146Z,100680.94
2017-11-19T06:19:09.630Z,100667.20
2017-11-19T06:20:12.127Z,100674.87
2017-11-19T06:21:14.611Z,100666.95
2017-11-19T06:22:17.072Z,100675.61
2017-11-19T06:23:19.565Z,100675.36
2017-11-19T06:24:22.037Z,100675.36
2017-11-19T06:25:24.545Z,100677.45
2017-11-19T06:26:27.008Z,100680.36
2017-11-19T06:27:29.486Z,100677.77
2017-11-19T06:28:31.953Z,100682.86
2017-11-19T06:29:34.434Z,100679.71
2017-11-19T06:30:36.939Z,100682.20
2017-11-19T06:31:39.400Z,100692.38
2017-11-19T06:32:41.882Z,100695.29
2017-11-19T06:33:44.363Z,100693.76
2017-11-19T06:34:46.843Z,100696.10
2017-11-19T06:35:49.324Z,100695.29
2017-11-19T06:36:51.803Z,100699.97
2017-11-19T06:37:54.276Z,100704.91
2017-11-19T06:38:56.750Z,100709.18
2017-11-19T06:39:59.243Z,100711.52
2017-11-19T06:41:01.760Z,100712.90
2017-11-19T06:42:04.246Z,100710.47
2017-11-19T06:43:06.726Z,100706.34
2017-11-19T06:44:09.265Z,100703.36
2017-11-19T06:45:11.742Z,100705.86
2017-11-19T06:46:14.221Z,100705.20
2017-11-19T06:47:16.719Z,100706.70
2017-11-19T06:48:19.180Z,100707.98
2017-11-19T06:49:21.649Z,100700.88
2017-11-19T06:50:24.123Z,100702.25
2017-11-19T06:51:26.612Z,100701.44
2017-11-19T06:52:29.098Z,100702.56
2017-11-19T06:53:31.574Z,100704.91
2017-11-19T06:54:34.125Z,100709.98
2017-11-19T06:55:36.618Z,100709.02
2017-11-19T06:56:39.103Z,100713.55
2017-11-19T06:57:41.592Z,100712.17
2017-11-19T06:58:44.157Z,100712.17
2017-11-19T06:59:46.621Z,100714.92
2017-11-19T07:00:49.100Z,100712.98
2017-11-19T07:01:51.641Z,100723.41
2017-11-19T07:02:54.100Z,100721.63
2017-11-19T07:03:56.593Z,100722.59
2017-11-19T07:04:59.056Z,100727.12
2017-11-19T07:06:01.538Z,100724.78
2017-11-19T07:07:04.038Z,100722.59
2017-11-19T07:08:07.301Z,100728.66
2017-11-19T07:09:09.779Z,100730.02
2017-11-19T07:10:12.565Z,100721.22
2017-11-19T07:11:15.023Z,100726.96
2017-11-19T07:12:17.512Z,100721.27
2017-11-19T07:13:19.997Z,100723.14
2017-11-19T07:14:22.476Z,100728.07
2017-11-19T07:15:24.961Z,100728.07
2017-11-19T07:16:27.451Z,100731.38
2017-11-19T07:17:29.940Z,100732.19
2017-11-19T07:18:32.412Z,100738.25
2017-11-19T07:19:34.876Z,100732.80
2017-11-19T07:20:37.340Z,100730.45
2017-11-19T07:21:39.826Z,100739.25
2017-11-19T07:22:42.324Z,100732.80
2017-11-19T07:23:44.823Z,100739.25
2017-11-19T07:24:47.318Z,100738.20
2017-11-19T07:25:49.784Z,100743.13
2017-11-19T07:26:52.276Z,100743.13
2017-11-19T07:27:54.771Z,100744.09
2017-11-19T07:28:57.261Z,100736.98
2017-11-19T07:29:59.737Z,100739.16
2017-11-19T07:31:02.211Z,100746.12
2017-11-19T07:32:04.698Z,100748.98
2017-11-19T07:33:07.199Z,100745.27
2017-11-19T07:34:09.745Z,100745.27
2017-11-19T07:35:12.214Z,100755.60
2017-11-19T07:36:14.731Z,100758.59
2017-11-19T07:37:17.213Z,100755.85
2017-11-19T07:38:19.682Z,100754.88
2017-11-19T07:39:22.178Z,100752.86
2017-11-19T07:40:24.661Z,100758.87
2017-11-19T07:41:27.149Z,100760.00
2017-11-19T07:42:29.646Z,100754.92
2017-11-19T07:43:32.135Z,100757.02
2017-11-19T07:44:34.616Z,100757.17
2017-11-19T07:45:37.185Z,100761.09
2017-11-19T07:46:39.652Z,100763.31
2017-11-19T07:47:42.116Z,100751.59
2017-11-19T07:48:44.580Z,100762.08
2017-11-19T07:49:47.048Z,100756.81
2017-11-19T07:50:49.526Z,100763.33
2017-11-19T07:51:52.000Z,100760.38
2017-11-19T07:52:54.472Z,100770.77
2017-11-19T07:53:56.953Z,100768.71
2017-11-19T07:54:59.421Z,100765.56
2017-11-19T07:56:01.911Z,100767.72
2017-11-19T07:57:04.375Z,100769.63
2017-11-19T07:58:06.887Z,100771.33
2017-11-19T07:59:09.373Z,100773.48
2017-11-19T08:00:11.879Z,100764.66
2017-11-19T08:01:14.364Z,100772.30
2017-11-19T08:02:16.835Z,100779.66
2017-11-19T08:03:19.302Z,100775.91
2017-11-19T08:04:21.810Z,100777.09
2017-11-19T08:05:24.294Z,100772.22
2017-11-19T08:06:26.759Z,100768.69
2017-11-19T08:07:29.225Z,100775.58
2017-11-19T08:08:31.686Z,100763.85
2017-11-19T08:09:34.187Z,100767.06
2017-11-19T08:10:36.665Z,100774.78
2017-11-19T08:11:39.161Z,100775.09
2017-11-19T08:12:41.636Z,100779.92
2017-11-19T08:13:44.107Z,100771.56
2017-11-19T08:14:46.619Z,100771.56
2017-11-19T08:15:49.102Z,100776.23
2017-11-19T08:16:51.579Z,100777.86
2017-11-19T08:17:54.049Z,100771.81
2017-11-19T08:18:56.520Z,100778.95
2017-11-19T08:19:59.286Z,100782.92
2017-11-19T08:21:01.773Z,100779.20
2017-11-19T08:22:04.232Z,100782.20
2017-11-19T08:23:06.713Z,100780.11
2017-11-19T08:24:09.188Z,100782.30
2017-11-19T08:25:11.694Z,100783.77
2017-11-19T08:26:14.173Z,100786.20
2017-11-19T08:27:16.663Z,100788.33
2017-11-19T08:28:19.146Z,100786.14
2017-11-19T08:29:21.617Z,100787.73
2017-11-19T08:30:24.130Z,100787.17
2017-11-19T08:31:26.592Z,100785.69
2017-11-19T08:32:29.076Z,100778.42
2017-11-19T08:33:31.564Z,100784.03
2017-11-19T08:34:34.048Z,100783.38
2017-11-19T08:35:36.556Z,100782.13
2017-11-19T08:36:39.058Z,100785.58
2017-11-19T08:37:41.539Z,100785.08
2017-11-19T08:38:44.009Z,100784.02
2017-11-19T08:39:46.470Z,100781.84
2017-11-19T08:40:48.970Z,100781.98
2017-11-19T08:41:51.438Z,100789.66
2017-11-19T08:42:53.924Z,100784.33
2017-11-19T08:43:56.407Z,100784.48
2017-11-19T08:44:58.917Z,100789.97
2017-11-19T08:46:01.421Z,100790.68
2017-11-19T08:47:03.882Z,100793.48
2017-11-19T08:48:06.391Z,100792.27
2017-11-19T08:49:08.875Z,100796.37
2017-11-19T08:50:11.376Z,100795.66
2017-11-19T08:51:13.860Z,100793.98
2017-11-19T08:52:16.323Z,100797.13
2017-11-19T08:53:18.798Z,100794.64
2017-11-19T08:54:21.283Z,100791.90
2017-11-19T08:55:23.854Z,100798.70
2017-11-19T08:56:26.361Z,100790.22
2017-11-19T08:57:28.843Z,100799.81
2017-11-19T08:58:31.320Z,100793.52
2017-11-19T08:59:33.784Z,100795.86
2017-11-19T09:00:36.268Z,100797.64
2017-11-19T09:01:38.783Z,100801.19
2017-11-19T09:02:41.275Z,100799.66
2017-11-19T09:03:43.758Z,100801.84
2017-11-19T09:04:46.259Z,100797.33
2017-11-19T09:05:48.750Z,100803.22
2017-11-19T09:06:51.240Z,100805.40
2017-11-19T09:07:53.734Z,100807.68
2017-11-19T09:08:56.210Z,100809.05
2017-11-19T09:09:58.702Z,100809.15
2017-11-19T09:11:01.193Z,100811.61
2017-11-19T09:12:03.677Z,100810.39
2017-11-19T09:13:06.161Z,100811.08
2017-11-19T09:14:08.654Z,100809.02
2017-11-19T09:15:11.143Z,100812.30
2017-11-19T09:16:13.630Z,100807.38
2017-11-19T09:17:16.146Z,100805.72
2017-11-19T09:18:18.626Z,100804.88
2017-11-19T09:19:21.085Z,100804.58
2017-11-19T09:20:23.563Z,100810.41
2017-11-19T09:21:26.049Z,100811.16
2017-11-19T09:22:28.581Z,100812.32
2017-11-19T09:23:31.051Z,100814.61
2017-11-19T09:24:33.516Z,100816.23
2017-11-19T09:25:35.977Z,100819.50
2017-11-19T09:26:38.544Z,100815.48
2017-11-19T09:27:41.053Z,100817.66
2017-11-19T09:28:43.573Z,100821.62
2017-11-19T09:29:46.032Z,100822.59
2017-11-19T09:30:48.509Z,100814.86
2017-11-19T09:31:51.006Z,100821.82
2017-11-19T09:32:53.505Z,100817.80
2017-11-19T09:33:55.981Z,100817.23
2017-11-19T09:34:58.455Z,100815.40
2017-11-19T09:36:00.921Z,100818.12
2017-11-19T09:37:03.402Z,100809.58
2017-11-19T09:38:06.217Z,100822.17
2017-11-19T09:39:10.063Z,100824.70
2017-11-19T09:40:12.551Z,100821.89
2017-11-19T09:41:15.013Z,100819.80
2017-11-19T09:42:17.540Z,100821.43
2017-11-19T09:43:20.884Z,100826.61
2017-11-19T09:44:23.374Z,100818.06
2017-11-19T09:45:25.858Z,100828.63
2017-11-19T09:46:28.346Z,100827.55
2017-11-19T09:47:30.814Z,100833.03
2017-11-19T09:48:33.305Z,100833.56
2017-11-19T09:49:35.769Z,100833.97
2017-11-19T09:50:38.232Z,100838.09
2017-11-19T09:51:40.696Z,100838.09
2017-11-19T09:52:43.183Z,100838.09
2017-11-19T09:53:45.665Z,100845.80
2017-11-19T09:54:48.159Z,100840.02
2017-11-19T09:55:50.643Z,100848.41
2017-11-19T09:56:53.124Z,100840.17
2017-11-19T09:57:55.607Z,100840.89
2017-11-19T09:58:58.130Z,100847.50
2017-11-19T10:00:01.272Z,100844.20
2017-11-19T10:01:03.751Z,100843.64
2017-11-19T10:02:06.245Z,100845.42
2017-11-19T10:03:08.723Z,100836.87
2017-11-19T10:04:11.213Z,100843.58
2017-11-19T10:05:13.680Z,100844.02
2017-11-19T10:06:16.150Z,100839.90
2017-11-19T10:07:18.620Z,100842.08
2017-11-19T10:08:21.089Z,100849.07
2017-11-19T10:09:23.621Z,100852.38
2017-11-19T10:10:26.081Z,100847.45
2017-11-19T10:11:28.564Z,100848.16
2017-11-19T10:12:31.118Z,100849.69
2017-11-19T10:13:33.598Z,100845.98
2017-11-19T10:14:36.085Z,100851.06
2017-11-19T10:15:38.547Z,100850.66
2017-11-19T10:16:41.008Z,100849.53
2017-11-19T10:17:43.477Z,100852.53
2017-11-19T10:18:45.937Z,100852.09
2017-11-19T10:19:48.438Z,100854.94
2017-11-19T10:20:50.897Z,100853.25
2017-11-19T10:21:53.383Z,100851.97
2017-11-19T10:22:55.844Z,100851.10
2017-11-19T10:23:58.314Z,100857.66
2017-11-19T10:25:00.811Z,100852.01
2017-11-19T10:26:03.319Z,100861.71
2017-11-19T10:27:05.789Z,100851.63
2017-11-19T10:28:08.275Z,100860.28
2017-11-19T10:29:10.766Z,100853.53
2017-11-19T10:30:13.281Z,100857.09
2017-11-19T10:31:15.799Z,100853.78
2017-11-19T10:32:18.286Z,100858.31
2017-11-19T10:33:20.804Z,100853.87
2017-11-19T10:34:23.265Z,100860.03
2017-11-19T10:35:25.751Z,100849.45
2017-11-19T10:36:28.209Z,100852.29
2017-11-19T10:37:30.686Z,100849.80
2017-11-19T10:38:33.149Z,100847.70
2017-11-19T10:39:35.696Z,100851.66
2017-11-19T10:40:38.198Z,100844.39
2017-11-19T10:41:40.671Z,100852.23
2017-11-19T10:42:43.137Z,100850.86
2017-11-19T10:43:45.610Z,100856.09
2017-11-19T10:44:48.087Z,100853.51
2017-11-19T10:45:50.572Z,100852.85
2017-11-19T10:46:53.046Z,100857.13
2017-11-19T10:47:55.510Z,100855.66
2017-11-19T10:48:57.984Z,100856.78
2017-11-19T10:50:00.554Z,100856.12
2017-11-19T10:51:03.455Z,100861.63
2017-11-19T10:52:05.944Z,100859.59
2017-11-19T10:53:08.423Z,100862.49
2017-11-19T10:54:10.924Z,100865.08
2017-11-19T10:55:13.384Z,100857.81
2017-11-19T10:56:15.888Z,100858.62
2017-11-19T10:57:18.369Z,100859.03
2017-11-19T10:58:20.848Z,100858.88
2017-11-19T10:59:23.321Z,100857.91
2017-11-19T11:00:25.800Z,100858.97
2017-11-19T11:01:28.285Z,100855.50
2017-11-19T11:02:30.752Z,100852.45
2017-11-19T11:03:33.215Z,100853.41
2017-11-19T11:04:35.687Z,100848.89
2017-11-19T11:05:38.166Z,100848.48
2017-11-19T11:06:40.655Z,100847.27
2017-11-19T11:07:43.135Z,100844.02
2017-11-19T11:08:45.600Z,100837.31
2017-11-19T11:09:48.110Z,100849.67
2017-11-19T11:10:50.585Z,100846.27
2017-11-19T11:11:53.070Z,100846.42
2017-11-19T11:12:55.551Z,100843.95
2017-11-19T11:13:58.038Z,100846.30
2017-11-19T11:15:00.511Z,100845.64
2017-11-19T11:16:02.978Z,100848.14
2017-11-19T11:17:05.502Z,100847.89
2017-11-19T11:18:07.964Z,100843.92
2017-11-19T11:19:10.466Z,100850.95
2017-11-19T11:20:12.946Z,100855.38
2017-11-19T11:21:15.431Z,100849.73
2017-11-19T11:22:17.917Z,100855.22
2017-11-19T11:23:20.394Z,100857.50
2017-11-19T11:24:22.858Z,100860.09
2017-11-19T11:25:25.338Z,100857.41
2017-11-19T11:26:27.824Z,100857.59
2017-11-19T11:27:30.329Z,100848.31
2017-11-19T11:28:32.811Z,100852.92
2017-11-19T11:29:35.284Z,100846.47
2017-11-19T11:30:37.765Z,100851.00
2017-11-19T11:31:40.240Z,100845.50
2017-11-19T11:32:42.730Z,100843.86
2017-11-19T11:33:45.206Z,100847.17
2017-11-19T11:34:47.698Z,100856.22
2017-11-19T11:35:50.219Z,100848.71
2017-11-19T11:36:52.694Z,100846.52
2017-11-19T11:37:55.212Z,100843.94
2017-11-19T11:38:57.756Z,100844.98
2017-11-19T11:40:00.743Z,100841.88
2017-11-19T11:41:03.218Z,100841.88
2017-11-19T11:42:05.705Z,100848.59
2017-11-19T11:43:09.219Z,100845.03
2017-11-19T11:44:11.705Z,100847.66
2017-11-19T11:45:14.185Z,100849.97
2017-11-19T11:46:16.681Z,100843.94
2017-11-19T11:47:19.170Z,100840.75
2017-11-19T11:48:21.692Z,100836.87
2017-11-19T11:49:24.187Z,100850.59
2017-11-19T11:50:26.659Z,100851.61
2017-11-19T11:51:29.135Z,100840.52
2017-11-19T11:52:31.604Z,100839.73
2017-11-19T11:53:34.095Z,100834.95
2017-11-19T11:54:36.582Z,100852.12